Date,TemperatureHighF,TemperatureAvgF,TemperatureLowF,DewpointHighF,DewpointAvgF,DewpointLowF,HumidityHigh,HumidityAvg,HumidityLow,PressureMaxIn,PressureMinIn,WindSpeedMaxMPH,WindSpeedAvgMPH,GustSpeedMaxMPH,PrecipitationSumIn
2013-2-1,63.5,46.7,34.0,23.5,5.9,-10.7,49,26,5,30.09,30.00,0,0,0,0.00
2013-2-2,62.6,48.6,39.9,27.2,10.7,-10.6,47,28,5,30.15,30.06,0,0,0,0.00
2013-2-3,60.6,46.5,37.4,28.8,12.0,-10.8,51,32,6,30.12,29.97,0,0,0,0.00
2013-2-4,62.6,47.7,36.3,27.5,10.8,-10.7,50,30,5,30.03,29.91,0,0,0,0.00
2013-2-5,57.0,45.9,36.7,28.4,9.5,-10.7,50,30,6,30.00,29.91,0,0,0,0.00
2013-2-6,59.4,45.7,34.7,30.6,5.4,-11.2,60,27,6,30.06,29.97,0,0,0,0.00
2013-2-7,59.0,46.2,38.1,27.4,3.6,-12.8,51,23,6,30.03,29.85,0,0,0,0.00
2013-2-8,56.7,44.0,33.6,23.1,-0.0,-13.2,51,21,6,29.85,29.77,0,0,0,0.00
2013-2-9,54.9,41.7,30.9,-7.8,-12.0,-15.7,12,10,7,29.97,29.83,0,0,0,0.00
2013-2-10,57.9,42.7,30.6,17.7,-2.9,-14.2,42,19,6,30.00,29.85,0,0,0,0.00
2013-2-11,59.0,42.7,29.1,12.9,-2.7,-13.2,41,19,6,30.09,29.94,0,0,0,0.00
2013-2-12,60.3,44.1,33.6,16.0,-6.3,-14.1,39,14,6,30.24,30.09,0,0,0,0.00
2013-2-13,44.8,40.1,36.9,8.2,-3.8,-12.9,29,17,9,30.18,30.06,0,0,0,0.00
2013-2-14,64.6,47.9,34.9,22.0,1.2,-12.5,42,20,4,30.12,30.03,0,0,0,0.00
2013-2-15,67.5,50.6,36.9,25.7,2.1,-12.5,44,20,4,30.15,30.09,0,0,0,0.00
2013-2-16,68.0,50.8,38.5,23.2,1.2,-12.5,42,19,4,30.12,29.88,0,0,0,0.00
2013-2-17,64.9,49.0,36.0,22.8,1.0,-12.5,43,19,4,29.91,29.80,0,0,0,0.00
2013-2-18,62.2,47.3,35.4,24.8,1.3,-11.7,43,20,5,29.88,29.77,0,0,0,0.00
2013-2-19,49.6,43.1,35.6,21.1,2.9,-12.1,42,22,8,29.80,29.59,0,0,0,0.00
2013-2-20,59.5,42.6,30.4,25.8,0.8,-14.2,59,25,6,29.88,29.68,0,0,0,0.00
2013-2-21,60.3,45.3,34.3,19.8,-1.8,-13.4,44,18,6,30.00,29.88,0,0,0,0.00
2013-2-22,61.5,47.3,32.2,16.1,-3.9,-13.6,39,16,5,30.12,30.00,0,0,0,0.00
2013-2-23,58.3,49.0,41.0,23.6,-2.4,-12.1,45,15,6,30.09,30.00,0,0,0,0.00
2013-2-24,62.2,47.6,36.7,-7.0,-11.0,-14.2,11,8,5,30.12,30.03,0,0,0,0.00
2013-2-25,63.0,47.1,34.0,11.5,-8.8,-14.4,31,10,5,30.15,30.00,0,0,0,0.00
2013-2-26,68.4,49.7,34.9,-7.1,-11.0,-14.4,12,8,4,30.06,29.97,0,0,0,0.00
2013-2-27,66.6,49.9,33.8,-7.8,-11.0,-15.1,11,8,4,30.21,30.06,0,0,0,0.00
2013-2-28,70.2,56.7,48.4,-3.7,-9.0,-14.3,11,7,3,30.30,30.21,0,0,0,0.00